sensor_id;sensor_type;location;lat;lon;timestamp;P1;durP1;ratioP1;P2;durP2;ratioP2
20322;SDS011;10319;52.206;20.996;2023-04-23T00:01:09;21.97;;;7.23;;
20322;SDS011;10319;52.206;20.996;2023-04-23T00:03:34;20.77;;;7.97;;
20322;SDS011;10319;52.206;20.996;2023-04-23T00:06:04;21.77;;;7.70;;
20322;SDS011;10319;52.206;20.996;2023-04-23T00:08:30;19.50;;;7.00;;
20322;SDS011;10319;52.206;20.996;2023-04-23T00:10:55;22.03;;;7.87;;
20322;SDS011;10319;52.206;20.996;2023-04-23T00:13:21;21.40;;;7.50;;
20322;SDS011;10319;52.206;20.996;2023-04-23T00:15:46;21.83;;;8.80;;
20322;SDS011;10319;52.206;20.996;2023-04-23T00:18:12;19.67;;;7.67;;
20322;SDS011;10319;52.206;20.996;2023-04-23T00:20:37;23.87;;;8.40;;
20322;SDS011;10319;52.206;20.996;2023-04-23T00:23:02;21.17;;;8.10;;
20322;SDS011;10319;52.206;20.996;2023-04-23T00:25:28;19.67;;;7.47;;
20322;SDS011;10319;52.206;20.996;2023-04-23T00:27:53;21.00;;;7.70;;
20322;SDS011;10319;52.206;20.996;2023-04-23T00:30:18;18.90;;;7.17;;
20322;SDS011;10319;52.206;20.996;2023-04-23T00:32:43;19.37;;;7.07;;
20322;SDS011;10319;52.206;20.996;2023-04-23T00:35:09;20.40;;;7.77;;
20322;SDS011;10319;52.206;20.996;2023-04-23T00:37:34;19.70;;;6.80;;
20322;SDS011;10319;52.206;20.996;2023-04-23T00:39:59;19.77;;;7.13;;
20322;SDS011;10319;52.206;20.996;2023-04-23T00:42:25;19.97;;;8.00;;
20322;SDS011;10319;52.206;20.996;2023-04-23T00:44:50;21.27;;;8.47;;
20322;SDS011;10319;52.206;20.996;2023-04-23T00:47:16;20.57;;;8.23;;
20322;SDS011;10319;52.206;20.996;2023-04-23T00:49:41;18.93;;;7.13;;
20322;SDS011;10319;52.206;20.996;2023-04-23T00:52:07;22.63;;;8.07;;
20322;SDS011;10319;52.206;20.996;2023-04-23T00:54:32;21.70;;;7.67;;
20322;SDS011;10319;52.206;20.996;2023-04-23T00:56:57;19.83;;;6.80;;
20322;SDS011;10319;52.206;20.996;2023-04-23T00:59:24;21.77;;;7.80;;
20322;SDS011;10319;52.206;20.996;2023-04-23T01:01:49;21.60;;;7.83;;
20322;SDS011;10319;52.206;20.996;2023-04-23T01:04:15;22.03;;;7.83;;
20322;SDS011;10319;52.206;20.996;2023-04-23T01:06:41;20.53;;;7.57;;
20322;SDS011;10319;52.206;20.996;2023-04-23T01:09:07;19.90;;;7.47;;
20322;SDS011;10319;52.206;20.996;2023-04-23T01:11:33;21.93;;;8.37;;
20322;SDS011;10319;52.206;20.996;2023-04-23T01:13:59;21.33;;;7.83;;
20322;SDS011;10319;52.206;20.996;2023-04-23T01:16:25;18.63;;;7.20;;
20322;SDS011;10319;52.206;20.996;2023-04-23T01:18:50;21.10;;;8.17;;
20322;SDS011;10319;52.206;20.996;2023-04-23T01:21:17;20.13;;;8.40;;
20322;SDS011;10319;52.206;20.996;2023-04-23T01:23:43;21.10;;;8.13;;
20322;SDS011;10319;52.206;20.996;2023-04-23T01:26:08;21.80;;;8.77;;
20322;SDS011;10319;52.206;20.996;2023-04-23T01:28:34;20.93;;;7.67;;
20322;SDS011;10319;52.206;20.996;2023-04-23T01:31:00;20.40;;;8.17;;
20322;SDS011;10319;52.206;20.996;2023-04-23T01:33:26;21.33;;;8.83;;
20322;SDS011;10319;52.206;20.996;2023-04-23T01:35:51;23.57;;;8.10;;
20322;SDS011;10319;52.206;20.996;2023-04-23T01:38:17;19.73;;;7.60;;
20322;SDS011;10319;52.206;20.996;2023-04-23T01:40:43;22.33;;;8.00;;
20322;SDS011;10319;52.206;20.996;2023-04-23T01:43:08;19.77;;;8.17;;
20322;SDS011;10319;52.206;20.996;2023-04-23T01:45:33;21.43;;;8.50;;
20322;SDS011;10319;52.206;20.996;2023-04-23T01:47:59;20.63;;;7.90;;
20322;SDS011;10319;52.206;20.996;2023-04-23T01:50:24;20.47;;;7.87;;
20322;SDS011;10319;52.206;20.996;2023-04-23T01:52:50;22.83;;;8.80;;
20322;SDS011;10319;52.206;20.996;2023-04-23T01:55:15;21.33;;;7.70;;
20322;SDS011;10319;52.206;20.996;2023-04-23T01:57:43;22.63;;;9.07;;
20322;SDS011;10319;52.206;20.996;2023-04-23T02:00:11;22.53;;;8.33;;
20322;SDS011;10319;52.206;20.996;2023-04-23T02:02:37;21.90;;;8.37;;
20322;SDS011;10319;52.206;20.996;2023-04-23T02:05:03;21.23;;;7.30;;
20322;SDS011;10319;52.206;20.996;2023-04-23T02:07:29;22.63;;;7.97;;
20322;SDS011;10319;52.206;20.996;2023-04-23T02:09:55;19.40;;;7.17;;
20322;SDS011;10319;52.206;20.996;2023-04-23T02:12:20;19.30;;;7.37;;
20322;SDS011;10319;52.206;20.996;2023-04-23T02:14:45;19.73;;;7.60;;
20322;SDS011;10319;52.206;20.996;2023-04-23T02:17:11;22.20;;;8.30;;
20322;SDS011;10319;52.206;20.996;2023-04-23T02:19:36;21.93;;;8.77;;
20322;SDS011;10319;52.206;20.996;2023-04-23T02:22:01;20.57;;;7.77;;
20322;SDS011;10319;52.206;20.996;2023-04-23T02:24:26;18.50;;;7.37;;
20322;SDS011;10319;52.206;20.996;2023-04-23T02:26:52;21.73;;;8.00;;
20322;SDS011;10319;52.206;20.996;2023-04-23T02:29:17;19.37;;;7.83;;
20322;SDS011;10319;52.206;20.996;2023-04-23T02:31:42;21.97;;;8.30;;
20322;SDS011;10319;52.206;20.996;2023-04-23T02:34:07;22.20;;;8.23;;
20322;SDS011;10319;52.206;20.996;2023-04-23T02:36:32;20.13;;;7.40;;
20322;SDS011;10319;52.206;20.996;2023-04-23T02:38:58;21.53;;;8.00;;
20322;SDS011;10319;52.206;20.996;2023-04-23T02:41:23;23.83;;;8.10;;
20322;SDS011;10319;52.206;20.996;2023-04-23T02:43:48;23.27;;;7.53;;
20322;SDS011;10319;52.206;20.996;2023-04-23T02:46:13;20.27;;;7.40;;
20322;SDS011;10319;52.206;20.996;2023-04-23T02:48:39;21.37;;;7.90;;
20322;SDS011;10319;52.206;20.996;2023-04-23T02:51:06;20.33;;;7.77;;
20322;SDS011;10319;52.206;20.996;2023-04-23T02:53:31;20.27;;;7.87;;
20322;SDS011;10319;52.206;20.996;2023-04-23T02:55:56;20.80;;;7.60;;
20322;SDS011;10319;52.206;20.996;2023-04-23T02:58:22;19.70;;;7.83;;
20322;SDS011;10319;52.206;20.996;2023-04-23T03:00:47;20.00;;;7.90;;
20322;SDS011;10319;52.206;20.996;2023-04-23T03:03:12;19.60;;;6.93;;
20322;SDS011;10319;52.206;20.996;2023-04-23T03:05:38;20.93;;;7.87;;
20322;SDS011;10319;52.206;20.996;2023-04-23T03:08:03;19.20;;;7.07;;
20322;SDS011;10319;52.206;20.996;2023-04-23T03:10:28;25.37;;;8.57;;
20322;SDS011;10319;52.206;20.996;2023-04-23T03:12:54;22.20;;;8.90;;
20322;SDS011;10319;52.206;20.996;2023-04-23T03:15:20;20.53;;;8.07;;
20322;SDS011;10319;52.206;20.996;2023-04-23T03:17:45;21.90;;;8.40;;
20322;SDS011;10319;52.206;20.996;2023-04-23T03:20:10;20.40;;;8.60;;
20322;SDS011;10319;52.206;20.996;2023-04-23T03:22:36;22.83;;;7.90;;
20322;SDS011;10319;52.206;20.996;2023-04-23T03:25:01;21.30;;;7.60;;
20322;SDS011;10319;52.206;20.996;2023-04-23T03:27:27;22.40;;;7.57;;
20322;SDS011;10319;52.206;20.996;2023-04-23T03:29:53;21.07;;;7.30;;
20322;SDS011;10319;52.206;20.996;2023-04-23T03:32:18;21.47;;;7.87;;
20322;SDS011;10319;52.206;20.996;2023-04-23T03:34:43;20.37;;;7.97;;
20322;SDS011;10319;52.206;20.996;2023-04-23T03:37:08;20.10;;;7.77;;
20322;SDS011;10319;52.206;20.996;2023-04-23T03:39:33;22.83;;;8.17;;
20322;SDS011;10319;52.206;20.996;2023-04-23T03:41:59;20.70;;;8.53;;
20322;SDS011;10319;52.206;20.996;2023-04-23T03:44:26;21.93;;;8.90;;
20322;SDS011;10319;52.206;20.996;2023-04-23T03:46:51;21.93;;;8.43;;
20322;SDS011;10319;52.206;20.996;2023-04-23T03:49:16;20.93;;;8.00;;
20322;SDS011;10319;52.206;20.996;2023-04-23T03:51:41;20.53;;;7.23;;
20322;SDS011;10319;52.206;20.996;2023-04-23T03:54:06;20.03;;;7.97;;
20322;SDS011;10319;52.206;20.996;2023-04-23T03:56:32;19.73;;;7.70;;
20322;SDS011;10319;52.206;20.996;2023-04-23T03:58:57;22.43;;;8.53;;
20322;SDS011;10319;52.206;20.996;2023-04-23T04:01:22;21.03;;;8.40;;
20322;SDS011;10319;52.206;20.996;2023-04-23T04:03:47;22.30;;;8.43;;
20322;SDS011;10319;52.206;20.996;2023-04-23T04:06:13;20.57;;;8.30;;
20322;SDS011;10319;52.206;20.996;2023-04-23T04:08:38;21.40;;;8.33;;
20322;SDS011;10319;52.206;20.996;2023-04-23T04:11:03;23.37;;;8.53;;
20322;SDS011;10319;52.206;20.996;2023-04-23T04:13:28;20.87;;;8.57;;
20322;SDS011;10319;52.206;20.996;2023-04-23T04:15:54;23.00;;;8.90;;
20322;SDS011;10319;52.206;20.996;2023-04-23T04:18:19;21.07;;;8.63;;
20322;SDS011;10319;52.206;20.996;2023-04-23T04:20:45;19.13;;;7.63;;
20322;SDS011;10319;52.206;20.996;2023-04-23T04:23:10;21.37;;;8.60;;
20322;SDS011;10319;52.206;20.996;2023-04-23T04:25:35;23.77;;;8.60;;
20322;SDS011;10319;52.206;20.996;2023-04-23T04:28:04;21.40;;;8.27;;
20322;SDS011;10319;52.206;20.996;2023-04-23T04:30:29;22.67;;;8.50;;
20322;SDS011;10319;52.206;20.996;2023-04-23T04:32:55;20.47;;;8.70;;
20322;SDS011;10319;52.206;20.996;2023-04-23T04:35:20;23.20;;;8.17;;
20322;SDS011;10319;52.206;20.996;2023-04-23T04:37:45;19.73;;;7.43;;
20322;SDS011;10319;52.206;20.996;2023-04-23T04:40:11;22.40;;;8.83;;
20322;SDS011;10319;52.206;20.996;2023-04-23T04:42:36;20.67;;;7.77;;
20322;SDS011;10319;52.206;20.996;2023-04-23T04:45:03;21.73;;;8.27;;
20322;SDS011;10319;52.206;20.996;2023-04-23T04:47:29;21.10;;;8.40;;
20322;SDS011;10319;52.206;20.996;2023-04-23T04:49:55;20.60;;;7.57;;
20322;SDS011;10319;52.206;20.996;2023-04-23T04:52:22;21.30;;;8.10;;
20322;SDS011;10319;52.206;20.996;2023-04-23T04:54:47;20.40;;;7.97;;
20322;SDS011;10319;52.206;20.996;2023-04-23T04:57:12;24.13;;;8.60;;
20322;SDS011;10319;52.206;20.996;2023-04-23T04:59:37;22.07;;;7.83;;
20322;SDS011;10319;52.206;20.996;2023-04-23T05:02:03;20.13;;;7.77;;
20322;SDS011;10319;52.206;20.996;2023-04-23T05:04:28;18.13;;;7.23;;
20322;SDS011;10319;52.206;20.996;2023-04-23T05:06:53;21.23;;;8.87;;
20322;SDS011;10319;52.206;20.996;2023-04-23T05:09:18;21.60;;;9.10;;
20322;SDS011;10319;52.206;20.996;2023-04-23T05:11:44;21.50;;;8.37;;
20322;SDS011;10319;52.206;20.996;2023-04-23T05:14:09;21.23;;;8.93;;
20322;SDS011;10319;52.206;20.996;2023-04-23T05:16:34;23.30;;;8.43;;
20322;SDS011;10319;52.206;20.996;2023-04-23T05:19:00;22.00;;;9.10;;
20322;SDS011;10319;52.206;20.996;2023-04-23T05:21:25;22.10;;;8.97;;
20322;SDS011;10319;52.206;20.996;2023-04-23T05:23:51;22.13;;;9.03;;
20322;SDS011;10319;52.206;20.996;2023-04-23T05:26:17;23.50;;;9.33;;
20322;SDS011;10319;52.206;20.996;2023-04-23T05:28:42;22.10;;;8.63;;
20322;SDS011;10319;52.206;20.996;2023-04-23T05:31:07;20.80;;;8.57;;
20322;SDS011;10319;52.206;20.996;2023-04-23T05:33:32;21.80;;;8.53;;
20322;SDS011;10319;52.206;20.996;2023-04-23T05:35:58;20.83;;;8.23;;
20322;SDS011;10319;52.206;20.996;2023-04-23T05:38:24;22.10;;;9.13;;
20322;SDS011;10319;52.206;20.996;2023-04-23T05:40:49;19.37;;;7.80;;
20322;SDS011;10319;52.206;20.996;2023-04-23T05:43:14;19.17;;;8.00;;
20322;SDS011;10319;52.206;20.996;2023-04-23T05:45:40;20.23;;;8.70;;
20322;SDS011;10319;52.206;20.996;2023-04-23T05:48:06;20.80;;;8.60;;
20322;SDS011;10319;52.206;20.996;2023-04-23T05:50:31;19.80;;;7.80;;
20322;SDS011;10319;52.206;20.996;2023-04-23T05:52:56;18.90;;;7.50;;
20322;SDS011;10319;52.206;20.996;2023-04-23T05:55:21;19.77;;;7.73;;
20322;SDS011;10319;52.206;20.996;2023-04-23T05:57:48;17.70;;;7.50;;
20322;SDS011;10319;52.206;20.996;2023-04-23T06:00:13;19.73;;;7.53;;
20322;SDS011;10319;52.206;20.996;2023-04-23T06:02:39;19.03;;;7.53;;
20322;SDS011;10319;52.206;20.996;2023-04-23T06:05:04;20.13;;;7.00;;
20322;SDS011;10319;52.206;20.996;2023-04-23T06:07:30;18.80;;;7.30;;
20322;SDS011;10319;52.206;20.996;2023-04-23T06:09:55;18.80;;;7.00;;
20322;SDS011;10319;52.206;20.996;2023-04-23T06:12:20;19.70;;;7.80;;
20322;SDS011;10319;52.206;20.996;2023-04-23T06:14:46;19.93;;;7.47;;
20322;SDS011;10319;52.206;20.996;2023-04-23T06:17:11;19.10;;;6.93;;
20322;SDS011;10319;52.206;20.996;2023-04-23T06:19:36;20.97;;;6.57;;
20322;SDS011;10319;52.206;20.996;2023-04-23T06:22:02;19.20;;;6.53;;
20322;SDS011;10319;52.206;20.996;2023-04-23T06:24:27;17.87;;;6.67;;
20322;SDS011;10319;52.206;20.996;2023-04-23T06:26:52;17.67;;;6.13;;
20322;SDS011;10319;52.206;20.996;2023-04-23T06:29:17;18.53;;;6.43;;
20322;SDS011;10319;52.206;20.996;2023-04-23T06:31:43;17.17;;;6.17;;
20322;SDS011;10319;52.206;20.996;2023-04-23T06:34:08;18.57;;;6.63;;
20322;SDS011;10319;52.206;20.996;2023-04-23T06:36:33;15.67;;;5.73;;
20322;SDS011;10319;52.206;20.996;2023-04-23T06:38:59;17.83;;;6.27;;
20322;SDS011;10319;52.206;20.996;2023-04-23T06:41:24;16.03;;;5.87;;
20322;SDS011;10319;52.206;20.996;2023-04-23T06:43:49;17.60;;;6.00;;
20322;SDS011;10319;52.206;20.996;2023-04-23T06:52:25;14.40;;;4.97;;
20322;SDS011;10319;52.206;20.996;2023-04-23T07:03:13;15.60;;;4.73;;
20322;SDS011;10319;52.206;20.996;2023-04-23T07:05:38;14.30;;;4.80;;
20322;SDS011;10319;52.206;20.996;2023-04-23T07:08:03;14.40;;;4.53;;
20322;SDS011;10319;52.206;20.996;2023-04-23T07:10:28;17.93;;;5.00;;
20322;SDS011;10319;52.206;20.996;2023-04-23T07:12:54;16.73;;;4.87;;
20322;SDS011;10319;52.206;20.996;2023-04-23T07:15:19;15.87;;;4.60;;
20322;SDS011;10319;52.206;20.996;2023-04-23T07:17:44;15.27;;;4.43;;
20322;SDS011;10319;52.206;20.996;2023-04-23T07:20:10;15.25;;;4.47;;
20322;SDS011;10319;52.206;20.996;2023-04-23T07:22:36;14.07;;;3.87;;
20322;SDS011;10319;52.206;20.996;2023-04-23T07:25:01;17.13;;;4.47;;
20322;SDS011;10319;52.206;20.996;2023-04-23T07:27:28;13.52;;;3.70;;
20322;SDS011;10319;52.206;20.996;2023-04-23T07:29:53;12.93;;;3.70;;
20322;SDS011;10319;52.206;20.996;2023-04-23T07:32:18;13.35;;;3.72;;
20322;SDS011;10319;52.206;20.996;2023-04-23T07:34:46;13.02;;;3.78;;
20322;SDS011;10319;52.206;20.996;2023-04-23T07:37:11;12.15;;;3.90;;
20322;SDS011;10319;52.206;20.996;2023-04-23T07:39:36;13.13;;;3.78;;
20322;SDS011;10319;52.206;20.996;2023-04-23T07:42:01;13.98;;;3.58;;
20322;SDS011;10319;52.206;20.996;2023-04-23T07:44:27;13.63;;;3.58;;
20322;SDS011;10319;52.206;20.996;2023-04-23T07:46:52;13.02;;;3.60;;
20322;SDS011;10319;52.206;20.996;2023-04-23T07:49:17;11.27;;;3.20;;
20322;SDS011;10319;52.206;20.996;2023-04-23T07:51:42;13.45;;;3.30;;
20322;SDS011;10319;52.206;20.996;2023-04-23T07:54:08;12.63;;;3.05;;
20322;SDS011;10319;52.206;20.996;2023-04-23T07:56:33;11.75;;;3.20;;
20322;SDS011;10319;52.206;20.996;2023-04-23T07:59:00;11.88;;;3.05;;
20322;SDS011;10319;52.206;20.996;2023-04-23T08:01:25;11.90;;;2.90;;
20322;SDS011;10319;52.206;20.996;2023-04-23T08:03:50;10.90;;;3.15;;
20322;SDS011;10319;52.206;20.996;2023-04-23T08:06:15;11.88;;;3.05;;
20322;SDS011;10319;52.206;20.996;2023-04-23T08:08:42;11.45;;;3.00;;
20322;SDS011;10319;52.206;20.996;2023-04-23T08:11:07;10.38;;;2.80;;
20322;SDS011;10319;52.206;20.996;2023-04-23T08:13:32;10.95;;;2.83;;
20322;SDS011;10319;52.206;20.996;2023-04-23T08:15:58;11.50;;;3.15;;
20322;SDS011;10319;52.206;20.996;2023-04-23T08:18:23;10.40;;;2.80;;
20322;SDS011;10319;52.206;20.996;2023-04-23T08:20:48;12.90;;;2.88;;
20322;SDS011;10319;52.206;20.996;2023-04-23T08:23:14;10.70;;;2.60;;
20322;SDS011;10319;52.206;20.996;2023-04-23T08:25:39;9.27;;;2.50;;
20322;SDS011;10319;52.206;20.996;2023-04-23T08:28:05;9.77;;;2.90;;
20322;SDS011;10319;52.206;20.996;2023-04-23T08:30:30;10.13;;;2.90;;
20322;SDS011;10319;52.206;20.996;2023-04-23T08:32:55;9.32;;;2.50;;
20322;SDS011;10319;52.206;20.996;2023-04-23T08:35:21;9.73;;;2.50;;
20322;SDS011;10319;52.206;20.996;2023-04-23T08:37:46;11.20;;;2.70;;
20322;SDS011;10319;52.206;20.996;2023-04-23T08:40:11;10.95;;;2.50;;
20322;SDS011;10319;52.206;20.996;2023-04-23T08:42:40;9.80;;;2.60;;
20322;SDS011;10319;52.206;20.996;2023-04-23T08:45:07;9.35;;;2.50;;
20322;SDS011;10319;52.206;20.996;2023-04-23T08:47:33;12.10;;;2.70;;
20322;SDS011;10319;52.206;20.996;2023-04-23T08:49:59;10.50;;;2.40;;
20322;SDS011;10319;52.206;20.996;2023-04-23T08:52:25;8.25;;;2.10;;
20322;SDS011;10319;52.206;20.996;2023-04-23T08:54:53;9.63;;;2.40;;
20322;SDS011;10319;52.206;20.996;2023-04-23T08:57:21;8.63;;;2.35;;
20322;SDS011;10319;52.206;20.996;2023-04-23T08:59:46;9.30;;;2.42;;
20322;SDS011;10319;52.206;20.996;2023-04-23T09:02:12;10.40;;;2.60;;
20322;SDS011;10319;52.206;20.996;2023-04-23T09:04:38;9.60;;;2.00;;
20322;SDS011;10319;52.206;20.996;2023-04-23T09:07:04;7.85;;;2.08;;
20322;SDS011;10319;52.206;20.996;2023-04-23T09:09:32;8.32;;;2.20;;
20322;SDS011;10319;52.206;20.996;2023-04-23T09:11:57;8.77;;;2.15;;
20322;SDS011;10319;52.206;20.996;2023-04-23T09:14:23;8.55;;;2.35;;
20322;SDS011;10319;52.206;20.996;2023-04-23T09:16:51;10.23;;;3.00;;
20322;SDS011;10319;52.206;20.996;2023-04-23T09:19:17;10.82;;;2.60;;
20322;SDS011;10319;52.206;20.996;2023-04-23T09:21:43;10.80;;;2.85;;
20322;SDS011;10319;52.206;20.996;2023-04-23T09:24:08;8.80;;;2.42;;
20322;SDS011;10319;52.206;20.996;2023-04-23T09:26:35;8.50;;;2.28;;
20322;SDS011;10319;52.206;20.996;2023-04-23T09:29:12;12.82;;;4.50;;
20322;SDS011;10319;52.206;20.996;2023-04-23T09:31:37;11.45;;;3.00;;
20322;SDS011;10319;52.206;20.996;2023-04-23T09:34:02;10.50;;;2.45;;
20322;SDS011;10319;52.206;20.996;2023-04-23T09:36:27;10.52;;;2.78;;
20322;SDS011;10319;52.206;20.996;2023-04-23T09:38:55;10.63;;;2.83;;
20322;SDS011;10319;52.206;20.996;2023-04-23T09:41:24;11.82;;;2.97;;
20322;SDS011;10319;52.206;20.996;2023-04-23T09:43:55;12.23;;;2.97;;
20322;SDS011;10319;52.206;20.996;2023-04-23T09:46:38;13.05;;;3.85;;
20322;SDS011;10319;52.206;20.996;2023-04-23T09:49:04;13.60;;;4.43;;
20322;SDS011;10319;52.206;20.996;2023-04-23T09:51:31;11.10;;;3.70;;
20322;SDS011;10319;52.206;20.996;2023-04-23T09:53:57;9.05;;;2.90;;
20322;SDS011;10319;52.206;20.996;2023-04-23T09:56:23;9.85;;;2.45;;
20322;SDS011;10319;52.206;20.996;2023-04-23T09:58:48;10.38;;;2.72;;
20322;SDS011;10319;52.206;20.996;2023-04-23T10:01:13;6.63;;;2.00;;
20322;SDS011;10319;52.206;20.996;2023-04-23T10:03:42;11.18;;;2.70;;
20322;SDS011;10319;52.206;20.996;2023-04-23T10:06:12;9.88;;;2.65;;
20322;SDS011;10319;52.206;20.996;2023-04-23T10:08:37;9.10;;;2.30;;
20322;SDS011;10319;52.206;20.996;2023-04-23T10:11:03;7.50;;;2.05;;
20322;SDS011;10319;52.206;20.996;2023-04-23T10:13:29;9.25;;;2.05;;
20322;SDS011;10319;52.206;20.996;2023-04-23T10:15:54;9.50;;;2.10;;
20322;SDS011;10319;52.206;20.996;2023-04-23T10:18:20;7.63;;;2.35;;
20322;SDS011;10319;52.206;20.996;2023-04-23T10:20:46;9.93;;;2.15;;
20322;SDS011;10319;52.206;20.996;2023-04-23T10:23:12;8.85;;;2.28;;
20322;SDS011;10319;52.206;20.996;2023-04-23T10:25:38;7.18;;;2.17;;
20322;SDS011;10319;52.206;20.996;2023-04-23T10:28:03;6.85;;;1.80;;
20322;SDS011;10319;52.206;20.996;2023-04-23T10:30:31;7.22;;;1.70;;
20322;SDS011;10319;52.206;20.996;2023-04-23T10:32:56;6.78;;;2.10;;
20322;SDS011;10319;52.206;20.996;2023-04-23T10:35:23;7.50;;;1.90;;
20322;SDS011;10319;52.206;20.996;2023-04-23T10:37:49;8.35;;;1.98;;
20322;SDS011;10319;52.206;20.996;2023-04-23T10:40:17;6.15;;;1.90;;
20322;SDS011;10319;52.206;20.996;2023-04-23T10:42:45;5.80;;;1.77;;
20322;SDS011;10319;52.206;20.996;2023-04-23T10:45:12;7.68;;;1.85;;
20322;SDS011;10319;52.206;20.996;2023-04-23T10:47:38;5.22;;;1.70;;
20322;SDS011;10319;52.206;20.996;2023-04-23T10:50:22;7.25;;;1.67;;
20322;SDS011;10319;52.206;20.996;2023-04-23T10:52:48;7.55;;;1.80;;
20322;SDS011;10319;52.206;20.996;2023-04-23T10:55:18;8.15;;;1.70;;
20322;SDS011;10319;52.206;20.996;2023-04-23T10:58:03;6.70;;;1.95;;
20322;SDS011;10319;52.206;20.996;2023-04-23T11:05:51;6.75;;;1.95;;
20322;SDS011;10319;52.206;20.996;2023-04-23T11:10:55;7.30;;;1.73;;
20322;SDS011;10319;52.206;20.996;2023-04-23T11:13:24;6.88;;;1.95;;
20322;SDS011;10319;52.206;20.996;2023-04-23T11:21:18;7.05;;;1.70;;
20322;SDS011;10319;52.206;20.996;2023-04-23T11:26:15;6.40;;;1.70;;
20322;SDS011;10319;52.206;20.996;2023-04-23T11:28:42;5.72;;;1.70;;
20322;SDS011;10319;52.206;20.996;2023-04-23T11:31:11;6.03;;;1.60;;
20322;SDS011;10319;52.206;20.996;2023-04-23T11:33:39;7.10;;;2.00;;
20322;SDS011;10319;52.206;20.996;2023-04-23T11:36:07;4.60;;;1.35;;
20322;SDS011;10319;52.206;20.996;2023-04-23T11:38:32;5.95;;;1.52;;
20322;SDS011;10319;52.206;20.996;2023-04-23T11:41:05;5.40;;;1.63;;
20322;SDS011;10319;52.206;20.996;2023-04-23T11:43:30;6.90;;;1.80;;
20322;SDS011;10319;52.206;20.996;2023-04-23T11:56:10;5.75;;;1.75;;
20322;SDS011;10319;52.206;20.996;2023-04-23T11:58:35;5.18;;;1.60;;
20322;SDS011;10319;52.206;20.996;2023-04-23T12:01:00;6.10;;;1.63;;
20322;SDS011;10319;52.206;20.996;2023-04-23T12:03:26;6.15;;;1.60;;
20322;SDS011;10319;52.206;20.996;2023-04-23T12:06:00;7.68;;;1.75;;
20322;SDS011;10319;52.206;20.996;2023-04-23T12:08:30;6.40;;;1.70;;
20322;SDS011;10319;52.206;20.996;2023-04-23T12:10:59;8.02;;;1.83;;
20322;SDS011;10319;52.206;20.996;2023-04-23T12:13:32;5.93;;;1.75;;
20322;SDS011;10319;52.206;20.996;2023-04-23T12:16:07;5.00;;;1.63;;
20322;SDS011;10319;52.206;20.996;2023-04-23T12:18:34;7.30;;;2.08;;
20322;SDS011;10319;52.206;20.996;2023-04-23T12:21:19;7.47;;;1.80;;
20322;SDS011;10319;52.206;20.996;2023-04-23T12:23:46;4.72;;;1.73;;
20322;SDS011;10319;52.206;20.996;2023-04-23T12:26:23;5.85;;;1.75;;
20322;SDS011;10319;52.206;20.996;2023-04-23T12:29:28;5.45;;;1.80;;
20322;SDS011;10319;52.206;20.996;2023-04-23T12:37:30;5.20;;;1.60;;
20322;SDS011;10319;52.206;20.996;2023-04-23T12:39:59;7.30;;;1.70;;
20322;SDS011;10319;52.206;20.996;2023-04-23T12:42:26;5.88;;;1.70;;
20322;SDS011;10319;52.206;20.996;2023-04-23T12:44:54;5.32;;;1.77;;
20322;SDS011;10319;52.206;20.996;2023-04-23T12:47:20;9.52;;;2.03;;
20322;SDS011;10319;52.206;20.996;2023-04-23T12:49:45;6.10;;;1.63;;
20322;SDS011;10319;52.206;20.996;2023-04-23T12:52:11;6.85;;;1.70;;
20322;SDS011;10319;52.206;20.996;2023-04-23T12:54:36;5.65;;;1.80;;
20322;SDS011;10319;52.206;20.996;2023-04-23T12:57:02;7.40;;;1.60;;
20322;SDS011;10319;52.206;20.996;2023-04-23T12:59:28;7.00;;;1.80;;
20322;SDS011;10319;52.206;20.996;2023-04-23T13:01:53;5.25;;;1.73;;
20322;SDS011;10319;52.206;20.996;2023-04-23T13:04:18;8.25;;;1.65;;
20322;SDS011;10319;52.206;20.996;2023-04-23T13:06:44;6.72;;;1.75;;
20322;SDS011;10319;52.206;20.996;2023-04-23T13:09:09;6.75;;;1.60;;
20322;SDS011;10319;52.206;20.996;2023-04-23T13:11:36;7.47;;;2.00;;
20322;SDS011;10319;52.206;20.996;2023-04-23T13:14:02;4.90;;;1.60;;
20322;SDS011;10319;52.206;20.996;2023-04-23T13:16:28;4.50;;;1.58;;
20322;SDS011;10319;52.206;20.996;2023-04-23T13:18:53;5.40;;;1.65;;
20322;SDS011;10319;52.206;20.996;2023-04-23T13:21:19;4.38;;;1.50;;
20322;SDS011;10319;52.206;20.996;2023-04-23T13:23:44;5.78;;;1.60;;
20322;SDS011;10319;52.206;20.996;2023-04-23T13:26:09;4.75;;;1.40;;
20322;SDS011;10319;52.206;20.996;2023-04-23T13:28:35;5.20;;;1.40;;
20322;SDS011;10319;52.206;20.996;2023-04-23T13:31:03;6.22;;;1.52;;
20322;SDS011;10319;52.206;20.996;2023-04-23T13:33:28;8.68;;;1.63;;
20322;SDS011;10319;52.206;20.996;2023-04-23T13:35:54;6.28;;;1.67;;
20322;SDS011;10319;52.206;20.996;2023-04-23T13:38:21;6.03;;;1.55;;
20322;SDS011;10319;52.206;20.996;2023-04-23T13:40:46;5.18;;;1.60;;
20322;SDS011;10319;52.206;20.996;2023-04-23T13:43:11;4.70;;;1.50;;
20322;SDS011;10319;52.206;20.996;2023-04-23T13:45:36;5.83;;;1.53;;
20322;SDS011;10319;52.206;20.996;2023-04-23T13:48:02;4.37;;;1.50;;
20322;SDS011;10319;52.206;20.996;2023-04-23T13:50:28;6.95;;;1.80;;
20322;SDS011;10319;52.206;20.996;2023-04-23T13:52:54;6.10;;;1.70;;
20322;SDS011;10319;52.206;20.996;2023-04-23T13:55:19;4.85;;;1.40;;
20322;SDS011;10319;52.206;20.996;2023-04-23T13:57:44;4.90;;;1.50;;
20322;SDS011;10319;52.206;20.996;2023-04-23T14:00:10;4.97;;;1.55;;
20322;SDS011;10319;52.206;20.996;2023-04-23T14:02:36;6.18;;;1.58;;
20322;SDS011;10319;52.206;20.996;2023-04-23T14:05:02;7.75;;;1.60;;
20322;SDS011;10319;52.206;20.996;2023-04-23T14:07:28;5.00;;;1.40;;
20322;SDS011;10319;52.206;20.996;2023-04-23T14:09:53;4.43;;;1.57;;
20322;SDS011;10319;52.206;20.996;2023-04-23T14:12:18;5.80;;;1.50;;
20322;SDS011;10319;52.206;20.996;2023-04-23T14:14:44;4.47;;;1.40;;
20322;SDS011;10319;52.206;20.996;2023-04-23T14:17:09;4.93;;;1.50;;
20322;SDS011;10319;52.206;20.996;2023-04-23T14:19:34;4.65;;;1.20;;
20322;SDS011;10319;52.206;20.996;2023-04-23T14:22:02;5.47;;;1.40;;
20322;SDS011;10319;52.206;20.996;2023-04-23T14:24:27;3.63;;;1.15;;
20322;SDS011;10319;52.206;20.996;2023-04-23T14:26:53;7.57;;;1.50;;
20322;SDS011;10319;52.206;20.996;2023-04-23T14:29:22;6.20;;;1.50;;
20322;SDS011;10319;52.206;20.996;2023-04-23T14:31:48;5.60;;;1.40;;
20322;SDS011;10319;52.206;20.996;2023-04-23T14:34:13;5.32;;;1.42;;
20322;SDS011;10319;52.206;20.996;2023-04-23T14:36:38;4.27;;;1.30;;
20322;SDS011;10319;52.206;20.996;2023-04-23T14:39:04;5.70;;;1.70;;
20322;SDS011;10319;52.206;20.996;2023-04-23T14:41:32;2.90;;;1.13;;
20322;SDS011;10319;52.206;20.996;2023-04-23T14:43:58;4.68;;;1.30;;
20322;SDS011;10319;52.206;20.996;2023-04-23T14:46:24;4.78;;;1.30;;
20322;SDS011;10319;52.206;20.996;2023-04-23T14:48:49;5.40;;;1.27;;
20322;SDS011;10319;52.206;20.996;2023-04-23T14:51:15;4.65;;;1.35;;
20322;SDS011;10319;52.206;20.996;2023-04-23T14:53:40;4.63;;;1.23;;
20322;SDS011;10319;52.206;20.996;2023-04-23T14:56:05;5.47;;;1.60;;
20322;SDS011;10319;52.206;20.996;2023-04-23T14:58:30;7.33;;;1.47;;
20322;SDS011;10319;52.206;20.996;2023-04-23T15:00:56;5.00;;;1.63;;
20322;SDS011;10319;52.206;20.996;2023-04-23T15:03:21;6.73;;;1.87;;
20322;SDS011;10319;52.206;20.996;2023-04-23T15:05:46;4.37;;;1.60;;